sensor_id;sensor_type;location;lat;lon;timestamp;P1;durP1;ratioP1;P2;durP2;ratioP2
39322;SDS011;25036;53.638;10.134;2022-10-26T00:00:13;8.23;;;4.67;;
39322;SDS011;25036;53.638;10.134;2022-10-26T00:01:14;9.57;;;4.60;;
39322;SDS011;25036;53.638;10.134;2022-10-26T00:02:14;6.45;;;4.18;;
39322;SDS011;25036;53.638;10.134;2022-10-26T00:03:15;6.75;;;4.30;;
39322;SDS011;25036;53.638;10.134;2022-10-26T00:04:15;7.78;;;4.45;;
39322;SDS011;25036;53.638;10.134;2022-10-26T00:05:15;5.67;;;4.10;;
39322;SDS011;25036;53.638;10.134;2022-10-26T00:06:19;9.43;;;4.85;;
39322;SDS011;25036;53.638;10.134;2022-10-26T00:07:20;6.10;;;4.20;;
39322;SDS011;25036;53.638;10.134;2022-10-26T00:08:20;6.97;;;4.10;;
39322;SDS011;25036;53.638;10.134;2022-10-26T00:09:20;10.90;;;4.47;;
39322;SDS011;25036;53.638;10.134;2022-10-26T00:10:20;6.65;;;4.10;;
39322;SDS011;25036;53.638;10.134;2022-10-26T00:11:20;6.10;;;4.68;;
39322;SDS011;25036;53.638;10.134;2022-10-26T00:12:20;6.60;;;4.53;;
39322;SDS011;25036;53.638;10.134;2022-10-26T00:13:21;5.33;;;3.67;;
39322;SDS011;25036;53.638;10.134;2022-10-26T00:14:21;5.73;;;4.03;;
39322;SDS011;25036;53.638;10.134;2022-10-26T00:15:21;6.68;;;4.40;;
39322;SDS011;25036;53.638;10.134;2022-10-26T00:16:25;7.33;;;4.30;;
39322;SDS011;25036;53.638;10.134;2022-10-26T00:17:25;7.18;;;4.30;;
39322;SDS011;25036;53.638;10.134;2022-10-26T00:18:25;5.53;;;4.10;;
39322;SDS011;25036;53.638;10.134;2022-10-26T00:19:26;8.40;;;4.32;;
39322;SDS011;25036;53.638;10.134;2022-10-26T00:20:26;10.25;;;4.40;;
39322;SDS011;25036;53.638;10.134;2022-10-26T00:21:26;4.10;;;3.67;;
39322;SDS011;25036;53.638;10.134;2022-10-26T00:22:26;5.35;;;4.25;;
39322;SDS011;25036;53.638;10.134;2022-10-26T00:23:27;6.03;;;4.07;;
39322;SDS011;25036;53.638;10.134;2022-10-26T00:24:27;6.47;;;4.40;;
39322;SDS011;25036;53.638;10.134;2022-10-26T00:25:27;5.03;;;3.58;;
39322;SDS011;25036;53.638;10.134;2022-10-26T00:26:27;7.23;;;4.23;;
39322;SDS011;25036;53.638;10.134;2022-10-26T00:27:27;6.47;;;4.63;;
39322;SDS011;25036;53.638;10.134;2022-10-26T00:28:27;9.13;;;4.73;;
39322;SDS011;25036;53.638;10.134;2022-10-26T00:29:27;8.23;;;5.15;;
39322;SDS011;25036;53.638;10.134;2022-10-26T00:30:28;6.83;;;5.40;;
39322;SDS011;25036;53.638;10.134;2022-10-26T00:31:28;8.70;;;5.07;;
39322;SDS011;25036;53.638;10.134;2022-10-26T00:32:28;10.83;;;4.80;;
39322;SDS011;25036;53.638;10.134;2022-10-26T00:33:28;6.97;;;4.87;;
39322;SDS011;25036;53.638;10.134;2022-10-26T00:34:29;7.82;;;4.75;;
39322;SDS011;25036;53.638;10.134;2022-10-26T00:35:29;7.07;;;4.77;;
39322;SDS011;25036;53.638;10.134;2022-10-26T00:36:29;6.23;;;4.60;;
39322;SDS011;25036;53.638;10.134;2022-10-26T00:37:29;4.57;;;4.03;;
39322;SDS011;25036;53.638;10.134;2022-10-26T00:38:29;5.03;;;4.30;;
39322;SDS011;25036;53.638;10.134;2022-10-26T00:39:29;6.65;;;4.10;;
39322;SDS011;25036;53.638;10.134;2022-10-26T00:40:29;8.17;;;4.17;;
39322;SDS011;25036;53.638;10.134;2022-10-26T00:41:30;8.47;;;4.20;;
39322;SDS011;25036;53.638;10.134;2022-10-26T00:42:31;6.22;;;4.18;;
39322;SDS011;25036;53.638;10.134;2022-10-26T00:43:34;6.43;;;4.07;;
39322;SDS011;25036;53.638;10.134;2022-10-26T00:45:48;5.85;;;4.30;;
39322;SDS011;25036;53.638;10.134;2022-10-26T00:46:49;6.93;;;4.20;;
39322;SDS011;25036;53.638;10.134;2022-10-26T00:47:51;7.40;;;3.97;;
39322;SDS011;25036;53.638;10.134;2022-10-26T00:48:53;4.88;;;4.18;;
39322;SDS011;25036;53.638;10.134;2022-10-26T00:49:54;5.22;;;4.13;;
39322;SDS011;25036;53.638;10.134;2022-10-26T00:50:55;5.88;;;4.50;;
39322;SDS011;25036;53.638;10.134;2022-10-26T00:51:57;5.65;;;4.03;;
39322;SDS011;25036;53.638;10.134;2022-10-26T00:52:58;6.18;;;4.20;;
39322;SDS011;25036;53.638;10.134;2022-10-26T00:53:59;6.63;;;4.40;;
39322;SDS011;25036;53.638;10.134;2022-10-26T00:55:00;4.70;;;3.70;;
39322;SDS011;25036;53.638;10.134;2022-10-26T00:56:00;5.00;;;4.00;;
39322;SDS011;25036;53.638;10.134;2022-10-26T00:57:00;8.55;;;4.50;;
39322;SDS011;25036;53.638;10.134;2022-10-26T00:58:01;5.00;;;3.72;;
39322;SDS011;25036;53.638;10.134;2022-10-26T00:59:05;7.35;;;4.30;;
39322;SDS011;25036;53.638;10.134;2022-10-26T01:00:06;5.43;;;4.15;;
39322;SDS011;25036;53.638;10.134;2022-10-26T01:01:06;7.15;;;4.32;;
39322;SDS011;25036;53.638;10.134;2022-10-26T01:02:06;9.82;;;4.40;;
39322;SDS011;25036;53.638;10.134;2022-10-26T01:03:08;4.75;;;3.85;;
39322;SDS011;25036;53.638;10.134;2022-10-26T01:04:08;6.13;;;4.13;;
39322;SDS011;25036;53.638;10.134;2022-10-26T01:05:08;6.68;;;4.05;;
39322;SDS011;25036;53.638;10.134;2022-10-26T01:06:10;4.93;;;3.83;;
39322;SDS011;25036;53.638;10.134;2022-10-26T01:07:10;5.65;;;4.25;;
39322;SDS011;25036;53.638;10.134;2022-10-26T01:08:11;5.47;;;3.95;;
39322;SDS011;25036;53.638;10.134;2022-10-26T01:09:12;8.57;;;4.00;;
39322;SDS011;25036;53.638;10.134;2022-10-26T01:10:12;6.60;;;4.30;;
39322;SDS011;25036;53.638;10.134;2022-10-26T01:11:13;7.60;;;4.70;;
39322;SDS011;25036;53.638;10.134;2022-10-26T01:12:13;7.00;;;3.60;;
39322;SDS011;25036;53.638;10.134;2022-10-26T01:13:13;6.67;;;4.40;;
39322;SDS011;25036;53.638;10.134;2022-10-26T01:14:14;5.80;;;4.15;;
39322;SDS011;25036;53.638;10.134;2022-10-26T01:15:16;5.20;;;4.22;;
39322;SDS011;25036;53.638;10.134;2022-10-26T01:16:24;7.40;;;4.38;;
39322;SDS011;25036;53.638;10.134;2022-10-26T01:22:07;7.37;;;3.90;;
39322;SDS011;25036;53.638;10.134;2022-10-26T01:28:07;4.75;;;3.67;;
39322;SDS011;25036;53.638;10.134;2022-10-26T01:30:33;5.53;;;3.97;;
39322;SDS011;25036;53.638;10.134;2022-10-26T01:31:38;6.75;;;4.57;;
39322;SDS011;25036;53.638;10.134;2022-10-26T01:33:55;5.43;;;3.87;;
39322;SDS011;25036;53.638;10.134;2022-10-26T01:35:06;5.90;;;4.03;;
39322;SDS011;25036;53.638;10.134;2022-10-26T01:37:11;4.70;;;3.50;;
39322;SDS011;25036;53.638;10.134;2022-10-26T01:39:38;5.00;;;3.90;;
39322;SDS011;25036;53.638;10.134;2022-10-26T01:40:41;6.07;;;3.95;;
39322;SDS011;25036;53.638;10.134;2022-10-26T01:41:47;5.35;;;3.75;;
39322;SDS011;25036;53.638;10.134;2022-10-26T01:42:48;7.13;;;4.30;;
39322;SDS011;25036;53.638;10.134;2022-10-26T01:43:58;7.50;;;4.28;;
39322;SDS011;25036;53.638;10.134;2022-10-26T01:45:01;7.15;;;4.10;;
39322;SDS011;25036;53.638;10.134;2022-10-26T01:46:03;5.53;;;4.05;;
39322;SDS011;25036;53.638;10.134;2022-10-26T01:47:04;7.40;;;4.00;;
39322;SDS011;25036;53.638;10.134;2022-10-26T01:48:05;5.97;;;3.90;;
39322;SDS011;25036;53.638;10.134;2022-10-26T01:49:08;7.80;;;4.55;;
39322;SDS011;25036;53.638;10.134;2022-10-26T01:50:09;7.63;;;4.20;;
39322;SDS011;25036;53.638;10.134;2022-10-26T01:51:10;7.05;;;4.28;;
39322;SDS011;25036;53.638;10.134;2022-10-26T01:52:10;8.30;;;4.68;;
39322;SDS011;25036;53.638;10.134;2022-10-26T01:53:12;6.13;;;4.17;;
39322;SDS011;25036;53.638;10.134;2022-10-26T01:54:12;5.75;;;3.90;;
39322;SDS011;25036;53.638;10.134;2022-10-26T01:56:33;6.75;;;4.15;;
39322;SDS011;25036;53.638;10.134;2022-10-26T01:57:35;7.20;;;4.20;;
39322;SDS011;25036;53.638;10.134;2022-10-26T01:58:54;4.78;;;4.00;;
39322;SDS011;25036;53.638;10.134;2022-10-26T02:00:05;7.40;;;4.18;;
39322;SDS011;25036;53.638;10.134;2022-10-26T02:01:25;10.45;;;4.82;;
39322;SDS011;25036;53.638;10.134;2022-10-26T02:02:43;6.75;;;4.68;;
39322;SDS011;25036;53.638;10.134;2022-10-26T02:03:49;5.15;;;3.90;;
39322;SDS011;25036;53.638;10.134;2022-10-26T02:04:59;7.75;;;3.90;;
39322;SDS011;25036;53.638;10.134;2022-10-26T02:06:13;6.95;;;4.32;;
39322;SDS011;25036;53.638;10.134;2022-10-26T02:07:29;6.47;;;4.05;;
39322;SDS011;25036;53.638;10.134;2022-10-26T02:08:38;4.57;;;3.55;;
39322;SDS011;25036;53.638;10.134;2022-10-26T02:09:49;7.28;;;4.22;;
39322;SDS011;25036;53.638;10.134;2022-10-26T02:11:04;5.05;;;4.03;;
39322;SDS011;25036;53.638;10.134;2022-10-26T02:12:11;6.95;;;4.28;;
39322;SDS011;25036;53.638;10.134;2022-10-26T02:15:34;8.13;;;4.32;;
39322;SDS011;25036;53.638;10.134;2022-10-26T02:16:54;5.43;;;4.20;;
39322;SDS011;25036;53.638;10.134;2022-10-26T02:18:39;5.32;;;3.90;;
39322;SDS011;25036;53.638;10.134;2022-10-26T02:19:26;5.88;;;4.22;;
39322;SDS011;25036;53.638;10.134;2022-10-26T02:20:37;5.57;;;3.92;;
39322;SDS011;25036;53.638;10.134;2022-10-26T02:21:40;7.07;;;4.28;;
39322;SDS011;25036;53.638;10.134;2022-10-26T02:22:44;8.30;;;4.05;;
39322;SDS011;25036;53.638;10.134;2022-10-26T02:23:45;4.07;;;3.67;;
39322;SDS011;25036;53.638;10.134;2022-10-26T02:24:47;8.23;;;4.07;;
39322;SDS011;25036;53.638;10.134;2022-10-26T02:25:49;6.50;;;4.22;;
39322;SDS011;25036;53.638;10.134;2022-10-26T02:26:50;4.95;;;4.20;;
39322;SDS011;25036;53.638;10.134;2022-10-26T02:27:52;5.30;;;3.60;;
39322;SDS011;25036;53.638;10.134;2022-10-26T02:28:55;6.30;;;4.10;;
39322;SDS011;25036;53.638;10.134;2022-10-26T02:29:56;6.10;;;3.83;;
39322;SDS011;25036;53.638;10.134;2022-10-26T02:30:57;5.45;;;3.78;;
39322;SDS011;25036;53.638;10.134;2022-10-26T02:31:58;5.57;;;4.10;;
39322;SDS011;25036;53.638;10.134;2022-10-26T02:32:59;5.40;;;4.18;;
39322;SDS011;25036;53.638;10.134;2022-10-26T02:34:01;6.50;;;4.00;;
39322;SDS011;25036;53.638;10.134;2022-10-26T02:35:02;4.38;;;3.72;;
39322;SDS011;25036;53.638;10.134;2022-10-26T02:36:04;5.38;;;3.83;;
39322;SDS011;25036;53.638;10.134;2022-10-26T02:37:06;5.90;;;3.80;;
39322;SDS011;25036;53.638;10.134;2022-10-26T02:38:07;7.80;;;4.55;;
39322;SDS011;25036;53.638;10.134;2022-10-26T02:39:09;8.88;;;4.07;;
39322;SDS011;25036;53.638;10.134;2022-10-26T02:40:10;4.97;;;4.25;;
39322;SDS011;25036;53.638;10.134;2022-10-26T02:41:11;8.57;;;4.55;;
39322;SDS011;25036;53.638;10.134;2022-10-26T02:42:12;5.30;;;4.18;;
39322;SDS011;25036;53.638;10.134;2022-10-26T02:43:14;5.82;;;4.00;;
39322;SDS011;25036;53.638;10.134;2022-10-26T02:44:22;6.57;;;4.22;;
39322;SDS011;25036;53.638;10.134;2022-10-26T02:45:24;5.75;;;4.30;;
39322;SDS011;25036;53.638;10.134;2022-10-26T02:46:26;5.70;;;4.35;;
39322;SDS011;25036;53.638;10.134;2022-10-26T02:47:27;7.70;;;3.92;;
39322;SDS011;25036;53.638;10.134;2022-10-26T02:48:27;5.93;;;4.22;;
39322;SDS011;25036;53.638;10.134;2022-10-26T02:49:28;6.15;;;4.20;;
39322;SDS011;25036;53.638;10.134;2022-10-26T02:50:35;4.88;;;3.97;;
39322;SDS011;25036;53.638;10.134;2022-10-26T02:51:41;5.95;;;3.78;;
39322;SDS011;25036;53.638;10.134;2022-10-26T02:53:45;5.33;;;3.83;;
39322;SDS011;25036;53.638;10.134;2022-10-26T02:55:51;8.10;;;4.85;;
39322;SDS011;25036;53.638;10.134;2022-10-26T02:56:53;6.20;;;4.53;;
39322;SDS011;25036;53.638;10.134;2022-10-26T02:57:54;5.00;;;3.95;;
39322;SDS011;25036;53.638;10.134;2022-10-26T02:58:58;5.65;;;4.45;;
39322;SDS011;25036;53.638;10.134;2022-10-26T02:59:59;5.63;;;3.90;;
39322;SDS011;25036;53.638;10.134;2022-10-26T03:01:00;5.18;;;4.13;;
39322;SDS011;25036;53.638;10.134;2022-10-26T03:02:00;7.03;;;4.10;;
39322;SDS011;25036;53.638;10.134;2022-10-26T03:03:00;8.65;;;4.53;;
39322;SDS011;25036;53.638;10.134;2022-10-26T03:04:02;8.18;;;4.20;;
39322;SDS011;25036;53.638;10.134;2022-10-26T03:05:05;6.43;;;4.22;;
39322;SDS011;25036;53.638;10.134;2022-10-26T03:06:06;7.00;;;4.35;;
39322;SDS011;25036;53.638;10.134;2022-10-26T03:07:06;5.40;;;4.07;;
39322;SDS011;25036;53.638;10.134;2022-10-26T03:08:07;9.03;;;4.83;;
39322;SDS011;25036;53.638;10.134;2022-10-26T03:09:07;5.83;;;4.40;;
39322;SDS011;25036;53.638;10.134;2022-10-26T03:10:07;9.53;;;4.37;;
39322;SDS011;25036;53.638;10.134;2022-10-26T03:11:07;7.57;;;5.07;;
39322;SDS011;25036;53.638;10.134;2022-10-26T03:12:07;5.07;;;4.10;;
39322;SDS011;25036;53.638;10.134;2022-10-26T03:13:08;7.63;;;4.68;;
39322;SDS011;25036;53.638;10.134;2022-10-26T03:14:08;9.68;;;4.30;;
39322;SDS011;25036;53.638;10.134;2022-10-26T03:15:08;8.60;;;4.87;;
39322;SDS011;25036;53.638;10.134;2022-10-26T03:16:08;4.95;;;4.18;;
39322;SDS011;25036;53.638;10.134;2022-10-26T03:17:09;7.45;;;4.07;;
39322;SDS011;25036;53.638;10.134;2022-10-26T03:18:09;5.65;;;4.38;;
39322;SDS011;25036;53.638;10.134;2022-10-26T03:19:09;7.33;;;4.23;;
39322;SDS011;25036;53.638;10.134;2022-10-26T03:20:09;5.85;;;4.05;;
39322;SDS011;25036;53.638;10.134;2022-10-26T03:21:10;5.05;;;3.72;;
39322;SDS011;25036;53.638;10.134;2022-10-26T03:22:10;9.57;;;4.63;;
39322;SDS011;25036;53.638;10.134;2022-10-26T03:23:10;8.23;;;4.47;;
39322;SDS011;25036;53.638;10.134;2022-10-26T03:24:11;8.70;;;4.13;;
39322;SDS011;25036;53.638;10.134;2022-10-26T03:25:11;6.53;;;4.37;;
39322;SDS011;25036;53.638;10.134;2022-10-26T03:26:11;8.30;;;4.28;;
39322;SDS011;25036;53.638;10.134;2022-10-26T03:27:11;5.77;;;4.27;;
39322;SDS011;25036;53.638;10.134;2022-10-26T03:28:12;8.95;;;4.68;;
39322;SDS011;25036;53.638;10.134;2022-10-26T03:29:13;8.10;;;4.68;;
39322;SDS011;25036;53.638;10.134;2022-10-26T03:30:13;5.53;;;4.37;;
39322;SDS011;25036;53.638;10.134;2022-10-26T03:31:13;6.20;;;4.43;;
39322;SDS011;25036;53.638;10.134;2022-10-26T03:32:13;5.63;;;4.50;;
39322;SDS011;25036;53.638;10.134;2022-10-26T03:33:13;7.27;;;4.50;;
39322;SDS011;25036;53.638;10.134;2022-10-26T03:34:13;6.30;;;4.60;;
39322;SDS011;25036;53.638;10.134;2022-10-26T03:35:14;6.80;;;4.65;;
39322;SDS011;25036;53.638;10.134;2022-10-26T03:36:14;6.27;;;4.77;;
39322;SDS011;25036;53.638;10.134;2022-10-26T03:37:14;5.77;;;4.70;;
39322;SDS011;25036;53.638;10.134;2022-10-26T03:38:14;6.27;;;4.47;;
39322;SDS011;25036;53.638;10.134;2022-10-26T03:39:14;8.13;;;4.43;;
39322;SDS011;25036;53.638;10.134;2022-10-26T03:40:14;6.23;;;4.17;;
39322;SDS011;25036;53.638;10.134;2022-10-26T03:41:15;8.75;;;4.70;;
39322;SDS011;25036;53.638;10.134;2022-10-26T03:42:15;4.43;;;4.03;;
39322;SDS011;25036;53.638;10.134;2022-10-26T03:43:15;7.77;;;4.43;;
39322;SDS011;25036;53.638;10.134;2022-10-26T03:44:15;6.20;;;4.10;;
39322;SDS011;25036;53.638;10.134;2022-10-26T03:45:15;7.68;;;4.82;;
39322;SDS011;25036;53.638;10.134;2022-10-26T03:46:15;5.85;;;4.40;;
39322;SDS011;25036;53.638;10.134;2022-10-26T03:47:16;7.35;;;4.50;;
39322;SDS011;25036;53.638;10.134;2022-10-26T03:48:16;7.23;;;4.43;;
39322;SDS011;25036;53.638;10.134;2022-10-26T03:49:16;8.20;;;4.88;;
39322;SDS011;25036;53.638;10.134;2022-10-26T03:50:17;7.53;;;4.77;;
39322;SDS011;25036;53.638;10.134;2022-10-26T03:51:17;9.10;;;4.50;;
39322;SDS011;25036;53.638;10.134;2022-10-26T03:52:17;6.87;;;4.90;;
39322;SDS011;25036;53.638;10.134;2022-10-26T03:53:17;5.27;;;4.17;;
39322;SDS011;25036;53.638;10.134;2022-10-26T03:54:18;5.73;;;4.00;;
39322;SDS011;25036;53.638;10.134;2022-10-26T03:55:18;6.35;;;4.57;;
39322;SDS011;25036;53.638;10.134;2022-10-26T03:56:18;8.30;;;4.85;;
39322;SDS011;25036;53.638;10.134;2022-10-26T03:57:18;6.70;;;4.60;;
39322;SDS011;25036;53.638;10.134;2022-10-26T03:58:18;5.30;;;4.80;;
39322;SDS011;25036;53.638;10.134;2022-10-26T03:59:19;8.13;;;4.75;;
39322;SDS011;25036;53.638;10.134;2022-10-26T04:00:19;6.23;;;4.77;;
39322;SDS011;25036;53.638;10.134;2022-10-26T04:01:19;4.80;;;4.30;;
39322;SDS011;25036;53.638;10.134;2022-10-26T04:02:19;5.90;;;4.88;;
39322;SDS011;25036;53.638;10.134;2022-10-26T04:03:19;5.33;;;4.53;;
39322;SDS011;25036;53.638;10.134;2022-10-26T04:04:19;6.05;;;4.53;;
39322;SDS011;25036;53.638;10.134;2022-10-26T04:05:20;6.40;;;4.40;;
39322;SDS011;25036;53.638;10.134;2022-10-26T04:06:20;5.37;;;4.10;;
39322;SDS011;25036;53.638;10.134;2022-10-26T04:07:20;6.47;;;4.67;;
39322;SDS011;25036;53.638;10.134;2022-10-26T04:08:20;5.83;;;4.63;;
39322;SDS011;25036;53.638;10.134;2022-10-26T04:09:20;6.27;;;4.80;;
39322;SDS011;25036;53.638;10.134;2022-10-26T04:10:21;6.97;;;4.40;;
39322;SDS011;25036;53.638;10.134;2022-10-26T04:11:21;7.68;;;4.38;;
39322;SDS011;25036;53.638;10.134;2022-10-26T04:12:21;6.13;;;4.60;;
39322;SDS011;25036;53.638;10.134;2022-10-26T04:13:21;12.13;;;4.57;;
39322;SDS011;25036;53.638;10.134;2022-10-26T04:14:21;6.72;;;5.15;;
39322;SDS011;25036;53.638;10.134;2022-10-26T04:15:22;7.87;;;4.80;;
39322;SDS011;25036;53.638;10.134;2022-10-26T04:16:22;6.10;;;4.60;;
39322;SDS011;25036;53.638;10.134;2022-10-26T04:17:22;5.77;;;4.53;;
39322;SDS011;25036;53.638;10.134;2022-10-26T04:18:23;9.38;;;4.68;;
39322;SDS011;25036;53.638;10.134;2022-10-26T04:19:23;5.55;;;4.82;;
39322;SDS011;25036;53.638;10.134;2022-10-26T04:20:23;7.43;;;5.00;;
39322;SDS011;25036;53.638;10.134;2022-10-26T04:21:24;8.55;;;5.03;;
39322;SDS011;25036;53.638;10.134;2022-10-26T04:22:24;6.60;;;5.10;;
39322;SDS011;25036;53.638;10.134;2022-10-26T04:23:24;8.10;;;5.30;;
39322;SDS011;25036;53.638;10.134;2022-10-26T04:24:24;8.47;;;5.00;;
39322;SDS011;25036;53.638;10.134;2022-10-26T04:25:24;7.73;;;5.30;;
39322;SDS011;25036;53.638;10.134;2022-10-26T04:26:25;6.18;;;4.85;;
39322;SDS011;25036;53.638;10.134;2022-10-26T04:27:25;9.00;;;4.78;;
39322;SDS011;25036;53.638;10.134;2022-10-26T04:28:25;8.43;;;5.50;;
39322;SDS011;25036;53.638;10.134;2022-10-26T04:29:25;6.47;;;5.10;;
39322;SDS011;25036;53.638;10.134;2022-10-26T04:30:25;7.70;;;5.60;;
39322;SDS011;25036;53.638;10.134;2022-10-26T04:31:25;5.78;;;5.22;;
39322;SDS011;25036;53.638;10.134;2022-10-26T04:32:26;6.30;;;5.33;;
39322;SDS011;25036;53.638;10.134;2022-10-26T04:33:26;8.77;;;5.67;;
39322;SDS011;25036;53.638;10.134;2022-10-26T04:34:26;7.03;;;5.47;;
39322;SDS011;25036;53.638;10.134;2022-10-26T04:35:26;6.40;;;5.47;;
39322;SDS011;25036;53.638;10.134;2022-10-26T04:36:26;10.90;;;6.35;;
39322;SDS011;25036;53.638;10.134;2022-10-26T04:37:27;9.80;;;6.90;;
39322;SDS011;25036;53.638;10.134;2022-10-26T04:38:27;8.67;;;6.67;;
39322;SDS011;25036;53.638;10.134;2022-10-26T04:39:27;8.37;;;6.20;;
39322;SDS011;25036;53.638;10.134;2022-10-26T04:40:27;8.38;;;6.15;;
39322;SDS011;25036;53.638;10.134;2022-10-26T04:41:28;11.10;;;6.75;;
39322;SDS011;25036;53.638;10.134;2022-10-26T04:42:28;9.97;;;7.03;;
39322;SDS011;25036;53.638;10.134;2022-10-26T04:43:32;8.65;;;6.40;;
39322;SDS011;25036;53.638;10.134;2022-10-26T04:44:32;9.83;;;6.97;;
39322;SDS011;25036;53.638;10.134;2022-10-26T04:45:33;7.80;;;6.90;;
39322;SDS011;25036;53.638;10.134;2022-10-26T04:46:33;9.25;;;6.40;;
39322;SDS011;25036;53.638;10.134;2022-10-26T04:47:33;8.67;;;7.10;;
39322;SDS011;25036;53.638;10.134;2022-10-26T04:48:33;7.63;;;6.67;;
39322;SDS011;25036;53.638;10.134;2022-10-26T04:49:33;10.53;;;7.10;;
39322;SDS011;25036;53.638;10.134;2022-10-26T04:50:34;10.03;;;7.27;;
39322;SDS011;25036;53.638;10.134;2022-10-26T04:51:34;12.25;;;7.20;;
39322;SDS011;25036;53.638;10.134;2022-10-26T04:52:35;9.03;;;7.73;;
39322;SDS011;25036;53.638;10.134;2022-10-26T04:53:35;7.85;;;6.90;;
39322;SDS011;25036;53.638;10.134;2022-10-26T04:54:35;9.03;;;7.17;;
39322;SDS011;25036;53.638;10.134;2022-10-26T04:55:35;8.97;;;6.33;;
39322;SDS011;25036;53.638;10.134;2022-10-26T04:56:36;9.20;;;6.55;;
39322;SDS011;25036;53.638;10.134;2022-10-26T04:57:36;9.83;;;6.20;;
39322;SDS011;25036;53.638;10.134;2022-10-26T04:58:36;8.53;;;6.50;;
39322;SDS011;25036;53.638;10.134;2022-10-26T04:59:36;9.17;;;6.90;;
39322;SDS011;25036;53.638;10.134;2022-10-26T05:00:36;7.37;;;6.03;;
39322;SDS011;25036;53.638;10.134;2022-10-26T05:01:36;8.57;;;6.30;;
39322;SDS011;25036;53.638;10.134;2022-10-26T05:02:36;7.90;;;6.80;;
39322;SDS011;25036;53.638;10.134;2022-10-26T05:03:36;6.87;;;6.17;;
39322;SDS011;25036;53.638;10.134;2022-10-26T05:04:37;10.87;;;7.80;;
39322;SDS011;25036;53.638;10.134;2022-10-26T05:05:37;9.27;;;7.20;;
39322;SDS011;25036;53.638;10.134;2022-10-26T05:06:37;12.32;;;7.25;;
39322;SDS011;25036;53.638;10.134;2022-10-26T05:07:37;12.37;;;7.13;;
39322;SDS011;25036;53.638;10.134;2022-10-26T05:08:37;8.18;;;6.95;;
39322;SDS011;25036;53.638;10.134;2022-10-26T05:09:37;10.45;;;7.28;;
39322;SDS011;25036;53.638;10.134;2022-10-26T05:10:37;9.40;;;6.83;;
39322;SDS011;25036;53.638;10.134;2022-10-26T05:11:38;10.33;;;6.90;;
39322;SDS011;25036;53.638;10.134;2022-10-26T05:12:38;8.53;;;7.63;;
39322;SDS011;25036;53.638;10.134;2022-10-26T05:13:38;8.73;;;6.60;;
39322;SDS011;25036;53.638;10.134;2022-10-26T05:14:38;10.87;;;7.67;;
39322;SDS011;25036;53.638;10.134;2022-10-26T05:15:38;8.20;;;6.50;;
39322;SDS011;25036;53.638;10.134;2022-10-26T05:16:38;7.93;;;7.13;;
39322;SDS011;25036;53.638;10.134;2022-10-26T05:17:38;10.30;;;7.07;;
39322;SDS011;25036;53.638;10.134;2022-10-26T05:18:39;8.53;;;7.20;;
39322;SDS011;25036;53.638;10.134;2022-10-26T05:19:39;8.17;;;7.00;;
39322;SDS011;25036;53.638;10.134;2022-10-26T05:20:39;7.65;;;6.78;;
39322;SDS011;25036;53.638;10.134;2022-10-26T05:21:39;10.43;;;6.60;;
39322;SDS011;25036;53.638;10.134;2022-10-26T05:22:39;11.13;;;7.13;;
39322;SDS011;25036;53.638;10.134;2022-10-26T05:23:40;9.10;;;6.13;;
39322;SDS011;25036;53.638;10.134;2022-10-26T05:24:40;8.60;;;6.77;;
39322;SDS011;25036;53.638;10.134;2022-10-26T05:25:40;9.47;;;7.50;;
39322;SDS011;25036;53.638;10.134;2022-10-26T05:26:40;10.67;;;7.43;;
39322;SDS011;25036;53.638;10.134;2022-10-26T05:27:41;9.80;;;6.97;;
39322;SDS011;25036;53.638;10.134;2022-10-26T05:28:41;9.15;;;7.53;;
39322;SDS011;25036;53.638;10.134;2022-10-26T05:29:41;10.27;;;8.20;;
39322;SDS011;25036;53.638;10.134;2022-10-26T05:30:42;10.68;;;7.82;;
39322;SDS011;25036;53.638;10.134;2022-10-26T05:31:42;11.60;;;8.00;;
39322;SDS011;25036;53.638;10.134;2022-10-26T05:32:42;10.43;;;8.27;;
39322;SDS011;25036;53.638;10.134;2022-10-26T05:33:42;12.57;;;8.67;;
39322;SDS011;25036;53.638;10.134;2022-10-26T05:34:42;12.53;;;8.37;;
39322;SDS011;25036;53.638;10.134;2022-10-26T05:35:43;9.98;;;8.52;;
39322;SDS011;25036;53.638;10.134;2022-10-26T05:36:43;12.80;;;9.03;;
39322;SDS011;25036;53.638;10.134;2022-10-26T05:37:43;11.73;;;8.03;;
39322;SDS011;25036;53.638;10.134;2022-10-26T05:38:43;11.67;;;8.57;;
39322;SDS011;25036;53.638;10.134;2022-10-26T05:39:43;11.80;;;8.65;;
39322;SDS011;25036;53.638;10.134;2022-10-26T05:40:47;9.10;;;8.03;;
39322;SDS011;25036;53.638;10.134;2022-10-26T05:41:47;11.63;;;8.63;;
39322;SDS011;25036;53.638;10.134;2022-10-26T05:42:47;10.17;;;8.33;;
39322;SDS011;25036;53.638;10.134;2022-10-26T05:43:49;11.35;;;7.82;;
39322;SDS011;25036;53.638;10.134;2022-10-26T05:44:49;9.17;;;8.20;;
39322;SDS011;25036;53.638;10.134;2022-10-26T05:45:50;9.88;;;7.82;;
39322;SDS011;25036;53.638;10.134;2022-10-26T05:46:50;9.68;;;8.05;;
39322;SDS011;25036;53.638;10.134;2022-10-26T05:47:50;8.87;;;8.03;;
39322;SDS011;25036;53.638;10.134;2022-10-26T05:48:50;9.75;;;8.02;;
39322;SDS011;25036;53.638;10.134;2022-10-26T05:49:50;11.33;;;8.40;;
39322;SDS011;25036;53.638;10.134;2022-10-26T05:50:50;12.17;;;8.23;;
39322;SDS011;25036;53.638;10.134;2022-10-26T05:51:51;9.63;;;8.63;;
39322;SDS011;25036;53.638;10.134;2022-10-26T05:52:51;11.77;;;8.70;;
39322;SDS011;25036;53.638;10.134;2022-10-26T05:53:51;14.33;;;8.53;;
39322;SDS011;25036;53.638;10.134;2022-10-26T05:54:53;9.98;;;7.70;;
39322;SDS011;25036;53.638;10.134;2022-10-26T05:55:54;12.73;;;8.20;;
39322;SDS011;25036;53.638;10.134;2022-10-26T05:56:54;10.18;;;8.43;;
39322;SDS011;25036;53.638;10.134;2022-10-26T05:57:55;9.27;;;8.18;;
39322;SDS011;25036;53.638;10.134;2022-10-26T05:58:55;8.68;;;7.78;;
39322;SDS011;25036;53.638;10.134;2022-10-26T05:59:55;9.60;;;7.85;;
39322;SDS011;25036;53.638;10.134;2022-10-26T06:02:18;9.68;;;7.88;;
39322;SDS011;25036;53.638;10.134;2022-10-26T06:03:33;11.95;;;8.93;;
39322;SDS011;25036;53.638;10.134;2022-10-26T06:04:37;14.40;;;8.60;;
39322;SDS011;25036;53.638;10.134;2022-10-26T06:05:44;10.05;;;8.20;;
39322;SDS011;25036;53.638;10.134;2022-10-26T06:06:46;9.45;;;7.88;;
39322;SDS011;25036;53.638;10.134;2022-10-26T06:07:46;10.43;;;7.60;;
39322;SDS011;25036;53.638;10.134;2022-10-26T06:08:47;12.15;;;7.88;;
39322;SDS011;25036;53.638;10.134;2022-10-26T06:09:47;11.98;;;8.38;;
39322;SDS011;25036;53.638;10.134;2022-10-26T06:10:48;9.55;;;7.72;;
39322;SDS011;25036;53.638;10.134;2022-10-26T06:11:48;9.15;;;7.70;;
39322;SDS011;25036;53.638;10.134;2022-10-26T06:12:49;8.77;;;7.70;;
39322;SDS011;25036;53.638;10.134;2022-10-26T06:13:49;9.43;;;8.32;;
39322;SDS011;25036;53.638;10.134;2022-10-26T06:14:50;11.20;;;8.63;;
39322;SDS011;25036;53.638;10.134;2022-10-26T06:17:25;10.07;;;8.18;;
39322;SDS011;25036;53.638;10.134;2022-10-26T06:22:52;8.75;;;7.72;;
39322;SDS011;25036;53.638;10.134;2022-10-26T06:24:06;10.18;;;8.05;;
39322;SDS011;25036;53.638;10.134;2022-10-26T06:27:23;10.52;;;8.35;;
39322;SDS011;25036;53.638;10.134;2022-10-26T06:28:41;12.82;;;8.30;;
39322;SDS011;25036;53.638;10.134;2022-10-26T06:29:49;11.55;;;8.10;;
39322;SDS011;25036;53.638;10.134;2022-10-26T06:30:50;11.00;;;8.30;;
39322;SDS011;25036;53.638;10.134;2022-10-26T06:31:51;8.90;;;7.93;;
39322;SDS011;25036;53.638;10.134;2022-10-26T06:32:51;13.87;;;9.00;;
39322;SDS011;25036;53.638;10.134;2022-10-26T06:33:56;10.25;;;8.93;;
39322;SDS011;25036;53.638;10.134;2022-10-26T06:36:12;11.45;;;8.82;;
39322;SDS011;25036;53.638;10.134;2022-10-26T06:37:15;10.60;;;8.27;;